Terminal Aerodrome Forecast
Issued by NWS Flagstaff, AZ

Home | Current Version | Previous Version | Text Only | Print | Product List | Glossary On
Versions: 1 2 3 4 5 6 7 8 9 10 11 12 13 14 15
000
FTUS45 KFGZ 281131
TAFFLG
TAF
KFLG 281131Z 2812/2912 27003KT P6SM FEW120
     FM281800 22009KT P6SM BKN080
     FM290200 VRB04KT P6SM FEW080 FEW250=

USA.gov is the U.S. government's official web portal to all federal, state and local government web resources and services.